Time;durP1;ratioP1;P1;durP2;ratioP2;P2;SDS_P1;SDS_P2;PMS_P1;PMS_P2;Temp;Humidity;BMP_temperature;BMP_pressure;BME280_temperature;BME280_humidity;BME280_pressure;Samples;Min_cycle;Max_cycle;Signal;HPM_P1;HPM_P2
2023/07/02 00:01:43;;;;;;;4.70;3.53;;;19.40;99.90;;;;;;5064965;28;20120;-67
2023/07/02 00:04:10;;;;;;;4.30;3.13;;;19.40;99.90;;;;;;5064184;28;20599;-67
2023/07/02 00:06:40;;;;;;;10.85;3.63;;;19.50;99.90;;;;;;5059114;28;20105;-66
2023/07/02 00:09:06;;;;;;;9.82;4.90;;;19.50;99.90;;;;;;5048988;28;20472;-67
2023/07/02 00:11:32;;;;;;;7.78;4.00;;;19.50;99.90;;;;;;5060602;28;20492;-68
2023/07/02 00:13:57;;;;;;;8.47;4.27;;;19.60;99.90;;;;;;5058548;28;20032;-67
2023/07/02 00:16:23;;;;;;;4.57;3.37;;;19.60;99.90;;;;;;5066216;28;20031;-67
2023/07/02 00:18:52;;;;;;;4.80;3.53;;;19.60;99.90;;;;;;5062733;28;20043;-67
2023/07/02 00:21:19;;;;;;;6.32;3.40;;;19.60;99.90;;;;;;5042985;28;20493;-67
2023/07/02 00:23:44;;;;;;;;;;;19.40;99.90;;;;;;5064234;28;20024;-67
2023/07/02 00:26:10;;;;;;;6.20;3.88;;;19.40;99.90;;;;;;5065948;28;20233;-66
2023/07/02 00:28:35;;;;;;;7.47;3.70;;;19.50;99.90;;;;;;5066947;28;20016;-68
2023/07/02 00:31:02;;;;;;;8.07;3.10;;;19.50;99.90;;;;;;5065943;28;20488;-67
2023/07/02 00:33:28;;;;;;;6.60;3.92;;;19.40;99.90;;;;;;5062010;28;20029;-67
2023/07/02 00:35:54;;;;;;;5.68;3.78;;;19.40;99.90;;;;;;5060302;28;20036;-66
2023/07/02 00:38:20;;;;;;;13.85;5.28;;;19.40;99.90;;;;;;5060916;28;20816;-67
2023/07/02 00:40:45;;;;;;;5.50;3.20;;;19.40;99.90;;;;;;5063978;28;20173;-67
2023/07/02 00:43:12;;;;;;;7.53;4.17;;;19.40;99.90;;;;;;5065546;28;20570;-67
2023/07/02 00:45:39;;;;;;;7.28;3.40;;;19.50;99.90;;;;;;5064893;28;20019;-67
2023/07/02 00:48:06;;;;;;;6.13;3.80;;;19.50;99.90;;;;;;5060951;28;20021;-67
2023/07/02 00:50:32;;;;;;;6.60;3.90;;;19.40;99.90;;;;;;5056853;28;20020;-67
2023/07/02 00:52:58;;;;;;;6.85;3.53;;;19.50;99.90;;;;;;5065359;28;20044;-68
2023/07/02 00:55:23;;;;;;;7.18;4.25;;;19.40;99.90;;;;;;5067619;28;20829;-68
2023/07/02 00:57:49;;;;;;;8.97;4.33;;;19.50;99.90;;;;;;5060931;28;20048;-67
2023/07/02 01:00:15;;;;;;;9.00;4.05;;;19.40;99.90;;;;;;5056320;28;20080;-66
2023/07/02 01:02:44;;;;;;;6.32;3.78;;;19.40;99.90;;;;;;5058374;28;20441;-67
2023/07/02 01:05:14;;;;;;;9.85;4.13;;;19.40;99.90;;;;;;5060491;28;20032;-69
2023/07/02 01:07:40;;;;;;;3.92;3.30;;;19.40;99.90;;;;;;5059876;28;20028;-68
2023/07/02 01:10:06;;;;;;;7.47;3.90;;;19.40;99.90;;;;;;5053619;28;20033;-68
2023/07/02 01:12:32;;;;;;;8.25;4.00;;;19.40;99.90;;;;;;5061629;28;20166;-68
2023/07/02 01:15:02;;;;;;;6.10;4.20;;;19.40;99.90;;;;;;5057570;28;20391;-68
2023/07/02 01:17:37;;;;;;;6.32;3.50;;;19.40;99.90;;;;;;5055303;28;20029;-67
2023/07/02 01:20:05;;;;;;;7.65;4.13;;;19.40;99.90;;;;;;5061624;28;20029;-67
2023/07/02 01:22:31;;;;;;;5.00;3.55;;;19.40;99.90;;;;;;5047360;28;20028;-68
2023/07/02 01:24:57;;;;;;;8.90;4.67;;;19.40;99.90;;;;;;5064874;28;20481;-67
2023/07/02 01:27:22;;;;;;;4.63;3.75;;;19.30;99.90;;;;;;5064039;28;20028;-67
2023/07/02 01:29:52;;;;;;;6.47;4.67;;;19.30;99.90;;;;;;5053529;28;20043;-67
2023/07/02 01:32:17;;;;;;;10.20;4.95;;;19.30;99.90;;;;;;5057758;28;20025;-68
2023/07/02 01:34:49;;;;;;;6.47;4.20;;;19.20;99.90;;;;;;5059759;28;20089;-67
2023/07/02 01:37:16;;;;;;;9.65;5.55;;;19.30;99.90;;;;;;5056607;28;20025;-67
2023/07/02 01:39:42;;;;;;;8.77;5.78;;;19.30;99.90;;;;;;5059658;28;20170;-68
2023/07/02 01:42:16;;;;;;;11.15;6.10;;;19.30;99.90;;;;;;5055472;28;20496;-68
2023/07/02 01:44:42;;;;;;;10.80;5.75;;;19.30;99.90;;;;;;5048910;28;20033;-67
2023/07/02 01:47:08;;;;;;;9.73;6.18;;;19.30;99.90;;;;;;5058343;28;20400;-68
2023/07/02 01:49:34;;;;;;;13.90;7.87;;;19.30;99.90;;;;;;5059563;28;20111;-68
2023/07/02 01:52:00;;;;;;;;;;;19.30;99.90;;;;;;5060977;28;20036;-69
2023/07/02 01:54:27;;;;;;;10.90;7.75;;;19.20;99.90;;;;;;5060472;28;20411;-68
2023/07/02 01:56:56;;;;;;;26.50;13.85;;;19.30;99.90;;;;;;5057728;28;20024;-68
2023/07/02 01:59:22;;;;;;;26.02;14.90;;;19.10;99.90;;;;;;5061234;28;20143;-67
2023/07/02 02:01:48;;;;;;;21.73;14.20;;;19.00;99.90;;;;;;5068650;28;20552;-67
2023/07/02 02:04:14;;;;;;;27.02;17.27;;;19.00;99.90;;;;;;5060936;28;20036;-66
2023/07/02 02:06:40;;;;;;;29.92;16.95;;;18.90;99.90;;;;;;5040509;28;20036;-67
2023/07/02 02:09:06;;;;;;;29.25;17.48;;;19.00;99.90;;;;;;5061101;28;20361;-66
2023/07/02 02:11:33;;;;;;;29.75;18.23;;;19.00;99.90;;;;;;5058557;28;20442;-66
2023/07/02 02:14:01;;;;;;;23.70;16.55;;;18.90;99.90;;;;;;5059649;28;20048;-67
2023/07/02 02:16:27;;;;;;;27.02;16.45;;;19.00;99.90;;;;;;5055954;28;20036;-66
2023/07/02 02:18:53;;;;;;;27.92;16.27;;;19.00;99.90;;;;;;5059679;28;20401;-68
2023/07/02 02:21:22;;;;;;;28.23;16.50;;;18.90;99.90;;;;;;5056207;28;20017;-68
2023/07/02 02:23:48;;;;;;;23.98;16.90;;;18.90;99.90;;;;;;5060566;28;20032;-68
2023/07/02 02:26:14;;;;;;;31.88;19.38;;;18.90;99.90;;;;;;5037641;28;20287;-69
2023/07/02 02:28:41;;;;;;;25.45;16.83;;;18.90;99.90;;;;;;5059764;28;20040;-68
2023/07/02 02:31:06;;;;;;;;;;;18.90;99.90;;;;;;5043356;28;20686;-69
2023/07/02 02:33:33;;;;;;;28.60;17.63;;;19.00;99.90;;;;;;5053129;28;19912;-68
2023/07/02 02:35:59;;;;;;;27.88;17.58;;;18.90;99.90;;;;;;5057257;28;20489;-69
2023/07/02 02:38:24;;;;;;;32.93;20.30;;;18.80;99.90;;;;;;5059542;28;20090;-67
2023/07/02 02:40:50;;;;;;;32.27;19.73;;;18.90;99.90;;;;;;5056910;28;20404;-68
2023/07/02 02:43:18;;;;;;;30.87;18.03;;;18.90;99.90;;;;;;5043655;28;20094;-66
2023/07/02 02:45:44;;;;;;;35.70;20.15;;;18.90;99.90;;;;;;5056502;28;20559;-68
2023/07/02 02:48:09;;;;;;;28.97;19.83;;;18.90;99.90;;;;;;5058135;28;20158;-68
2023/07/02 02:50:36;;;;;;;34.07;21.37;;;18.90;99.90;;;;;;5056714;28;20029;-68
2023/07/02 02:53:02;;;;;;;28.58;19.60;;;18.80;99.90;;;;;;5054056;28;20028;-68
2023/07/02 02:55:28;;;;;;;32.08;20.67;;;18.80;99.90;;;;;;5056925;28;20031;-66
2023/07/02 02:57:53;;;;;;;35.63;20.80;;;18.90;99.90;;;;;;5053082;28;20036;-68
2023/07/02 03:00:19;;;;;;;28.40;19.20;;;18.80;99.90;;;;;;5058321;28;20468;-68
2023/07/02 03:02:45;;;;;;;37.77;20.13;;;18.80;99.90;;;;;;5058430;28;20024;-68
2023/07/02 03:05:10;;;;;;;35.93;18.70;;;18.80;99.90;;;;;;5066232;28;20071;-67
2023/07/02 03:07:36;;;;;;;33.50;19.38;;;18.80;99.90;;;;;;5056295;28;20031;-67
2023/07/02 03:10:02;;;;;;;33.67;19.03;;;18.80;99.90;;;;;;5056594;28;20178;-67
2023/07/02 03:12:27;;;;;;;33.70;19.67;;;18.90;99.90;;;;;;5060564;28;20587;-67
2023/07/02 03:14:55;;;;;;;29.87;19.17;;;18.80;99.90;;;;;;5058035;28;20621;-66
2023/07/02 03:17:21;;;;;;;38.35;20.52;;;18.80;99.90;;;;;;5060415;28;20044;-67
2023/07/02 03:19:47;;;;;;;33.72;19.95;;;18.80;99.90;;;;;;5053031;28;20044;-67
2023/07/02 03:22:12;;;;;;;30.15;19.73;;;18.80;99.90;;;;;;5038056;28;20037;-67
2023/07/02 03:24:38;;;;;;;32.40;20.83;;;18.80;99.90;;;;;;5058489;28;20053;-68
2023/07/02 03:27:04;;;;;;;33.37;19.43;;;18.80;99.90;;;;;;5061518;28;20033;-68
2023/07/02 03:29:30;;;;;;;33.65;19.58;;;18.80;99.90;;;;;;5063481;28;20040;-68
2023/07/02 03:31:55;;;;;;;35.20;19.63;;;18.80;99.90;;;;;;5061445;28;20048;-68
2023/07/02 03:34:24;;;;;;;32.03;19.73;;;18.60;99.90;;;;;;5057138;28;20032;-68
2023/07/02 03:36:50;;;;;;;37.83;19.05;;;18.70;99.90;;;;;;5064548;28;20068;-67
2023/07/02 03:39:19;;;;;;;36.43;19.50;;;18.70;99.90;;;;;;5062204;28;20138;-67
2023/07/02 03:41:44;;;;;;;33.20;19.38;;;18.70;99.90;;;;;;5046847;28;20032;-67
2023/07/02 03:44:10;;;;;;;36.77;20.77;;;18.80;99.90;;;;;;5056785;28;21950;-66
2023/07/02 03:46:36;;;;;;;29.83;19.77;;;18.70;99.90;;;;;;5062762;28;20283;-68
2023/07/02 03:49:05;;;;;;;31.93;20.67;;;18.70;99.90;;;;;;5062746;28;20029;-68
2023/07/02 03:51:31;;;;;;;35.15;21.27;;;18.70;99.90;;;;;;5063183;28;20025;-68
2023/07/02 03:53:58;;;;;;;28.80;19.50;;;18.70;99.90;;;;;;5062616;28;20746;-68
2023/07/02 03:56:24;;;;;;;29.92;19.00;;;18.60;99.90;;;;;;5060709;28;20028;-68
2023/07/02 03:58:50;;;;;;;28.08;18.60;;;18.60;99.90;;;;;;5064441;28;20053;-68
2023/07/02 04:01:16;;;;;;;34.28;18.92;;;18.60;99.90;;;;;;5063652;28;20031;-68
2023/07/02 04:03:49;;;;;;;27.05;17.98;;;18.60;99.90;;;;;;5062017;28;20483;-68
2023/07/02 04:06:15;;;;;;;30.95;18.25;;;18.60;99.90;;;;;;5056614;28;20021;-67
2023/07/02 04:08:41;;;;;;;24.38;18.67;;;18.60;99.90;;;;;;5046026;28;20111;-68
2023/07/02 04:11:06;;;;;;;30.03;19.23;;;18.60;99.90;;;;;;5070747;28;20516;-67
2023/07/02 04:13:32;;;;;;;29.73;18.63;;;18.50;99.90;;;;;;5060419;28;20036;-68
2023/07/02 04:15:58;;;;;;;26.10;17.00;;;18.50;99.90;;;;;;5063207;28;20029;-68
2023/07/02 04:18:23;;;;;;;26.47;16.43;;;18.40;99.90;;;;;;5061653;28;20041;-67
2023/07/02 04:20:49;;;;;;;26.40;18.60;;;18.40;99.90;;;;;;5064080;28;20025;-66
2023/07/02 04:23:14;;;;;;;28.57;17.90;;;18.50;99.90;;;;;;5061913;28;20135;-69
2023/07/02 04:25:40;;;;;;;37.13;20.53;;;18.40;99.90;;;;;;5064129;28;20463;-65
2023/07/02 04:28:06;;;;;;;34.73;20.20;;;18.50;99.90;;;;;;5060316;28;20024;-67
2023/07/02 04:30:31;;;;;;;43.07;21.93;;;18.50;99.90;;;;;;5056071;28;20025;-66
2023/07/02 04:32:57;;;;;;;31.60;20.40;;;18.50;99.90;;;;;;5059691;28;20401;-66
2023/07/02 04:35:23;;;;;;;43.83;21.27;;;18.50;99.90;;;;;;5059954;28;20056;-67
2023/07/02 04:37:48;;;;;;;27.98;18.92;;;18.50;99.90;;;;;;5058751;28;20071;-67
2023/07/02 04:40:14;;;;;;;30.00;20.47;;;18.60;99.90;;;;;;5057651;28;20051;-67
2023/07/02 04:42:46;;;;;;;32.20;19.42;;;18.60;99.90;;;;;;5061386;28;20032;-67
2023/07/02 04:45:14;;;;;;;35.20;21.67;;;18.70;99.90;;;;;;5044984;28;20024;-66
2023/07/02 04:47:44;;;;;;;30.52;20.20;;;18.70;99.90;;;;;;5060697;28;20032;-68
2023/07/02 04:50:10;;;;;;;30.83;19.27;;;18.80;99.90;;;;;;5057760;28;20025;-68
2023/07/02 04:52:36;;;;;;;31.58;20.13;;;18.90;99.90;;;;;;5062183;28;20047;-65
2023/07/02 04:55:02;;;;;;;34.13;19.73;;;18.90;99.90;;;;;;5066160;28;20483;-67
2023/07/02 04:57:28;;;;;;;38.97;19.92;;;18.90;99.90;;;;;;5063337;28;20060;-66
2023/07/02 04:59:54;;;;;;;37.17;20.57;;;19.00;99.90;;;;;;5062789;28;20523;-68
2023/07/02 05:02:20;;;;;;;36.05;19.70;;;19.00;99.90;;;;;;5056342;28;20048;-67
2023/07/02 05:04:45;;;;;;;27.00;18.17;;;19.00;99.90;;;;;;5059004;28;20830;-68
2023/07/02 05:07:11;;;;;;;32.03;18.70;;;19.00;99.90;;;;;;5061479;28;20132;-67
2023/07/02 05:09:37;;;;;;;34.30;20.00;;;19.10;99.90;;;;;;5058511;28;20115;-68
2023/07/02 05:12:02;;;;;;;28.23;18.63;;;19.10;99.90;;;;;;5058664;28;20028;-68
2023/07/02 05:14:28;;;;;;;29.42;19.80;;;19.20;99.90;;;;;;5044237;28;20085;-67
2023/07/02 05:16:53;;;;;;;33.60;21.23;;;19.10;99.90;;;;;;5061413;28;20032;-67
2023/07/02 05:19:19;;;;;;;33.50;19.27;;;19.10;99.90;;;;;;5058049;28;20032;-67
2023/07/02 05:21:45;;;;;;;29.77;19.67;;;19.10;99.90;;;;;;5059241;28;20491;-68
2023/07/02 05:24:10;;;;;;;33.07;20.13;;;19.10;99.90;;;;;;5059555;28;20035;-66
2023/07/02 05:26:36;;;;;;;30.55;20.05;;;19.00;99.90;;;;;;5058680;28;20508;-68
2023/07/02 05:29:02;;;;;;;30.03;18.37;;;18.80;99.90;;;;;;5057143;28;20047;-67
2023/07/02 05:31:28;;;;;;;29.55;18.67;;;18.80;99.90;;;;;;5060813;28;20024;-67
2023/07/02 05:33:54;;;;;;;30.70;19.17;;;18.90;99.90;;;;;;5062095;28;20036;-67
2023/07/02 05:36:20;;;;;;;30.20;19.30;;;19.00;99.90;;;;;;5061552;28;20512;-67
2023/07/02 05:38:46;;;;;;;32.35;20.38;;;19.00;99.90;;;;;;5058679;28;20045;-67
2023/07/02 05:41:18;;;;;;;32.10;20.27;;;19.10;99.90;;;;;;5058306;28;20098;-67
2023/07/02 05:43:44;;;;;;;30.30;21.00;;;19.20;99.90;;;;;;5063524;28;20059;-68
2023/07/02 05:46:10;;;;;;;34.13;20.53;;;19.20;99.90;;;;;;5062913;28;20112;-67
2023/07/02 05:48:35;;;;;;;32.07;20.40;;;19.10;99.90;;;;;;5060295;28;20115;-69
2023/07/02 05:51:02;;;;;;;29.67;20.00;;;19.10;99.90;;;;;;5058371;28;20033;-70
2023/07/02 05:53:27;;;;;;;31.95;21.15;;;19.10;99.90;;;;;;5055628;28;20048;-67
2023/07/02 05:55:54;;;;;;;31.83;20.93;;;19.20;99.90;;;;;;5056623;28;20036;-67
2023/07/02 05:58:20;;;;;;;33.42;21.05;;;19.20;99.90;;;;;;5055507;28;20029;-67
2023/07/02 06:00:49;;;;;;;32.58;20.83;;;19.20;99.90;;;;;;5058840;28;20476;-68
2023/07/02 06:03:20;;;;;;;32.88;20.27;;;19.20;99.90;;;;;;5064544;28;20040;-67
2023/07/02 06:05:47;;;;;;;36.95;20.83;;;19.20;99.90;;;;;;5059666;28;20060;-67
2023/07/02 06:08:13;;;;;;;32.22;20.30;;;19.10;99.90;;;;;;5058544;28;20100;-68
2023/07/02 06:10:39;;;;;;;39.43;23.00;;;19.10;99.90;;;;;;5060844;28;20470;-67
2023/07/02 06:13:04;;;;;;;37.00;22.73;;;19.10;99.90;;;;;;5057828;28;20040;-68
2023/07/02 06:15:30;;;;;;;36.87;21.53;;;19.20;99.90;;;;;;5067335;28;20035;-68
2023/07/02 06:17:56;;;;;;;36.88;22.85;;;19.30;99.90;;;;;;5058995;28;20047;-69
2023/07/02 06:20:21;;;;;;;38.47;22.93;;;19.30;99.90;;;;;;5039727;28;20405;-68
2023/07/02 06:22:47;;;;;;;40.47;22.80;;;19.30;99.90;;;;;;5057127;28;20080;-67
2023/07/02 06:25:13;;;;;;;39.50;22.57;;;19.50;99.90;;;;;;5057749;28;20479;-68
2023/07/02 06:27:39;;;;;;;42.72;23.00;;;19.70;99.90;;;;;;5063370;28;20099;-68
2023/07/02 06:30:06;;;;;;;42.87;24.53;;;19.80;99.90;;;;;;5053188;28;20092;-67
2023/07/02 06:32:32;;;;;;;42.03;22.48;;;19.90;99.90;;;;;;5037126;28;20033;-68
2023/07/02 06:34:57;;;;;;;42.15;23.95;;;19.90;99.90;;;;;;5056593;28;20568;-68
2023/07/02 06:37:23;;;;;;;38.07;24.20;;;20.00;99.90;;;;;;5056595;28;20040;-67
2023/07/02 06:39:49;;;;;;;37.90;22.33;;;20.00;99.90;;;;;;5051190;28;20111;-67
2023/07/02 06:42:14;;;;;;;40.17;22.80;;;20.20;99.90;;;;;;5056513;28;20040;-67
2023/07/02 06:44:41;;;;;;;42.30;21.93;;;20.30;99.90;;;;;;5054447;28;20040;-67
2023/07/02 06:47:06;;;;;;;35.15;21.70;;;20.40;99.90;;;;;;5059144;28;20595;-67
2023/07/02 06:49:32;;;;;;;31.77;19.77;;;20.50;99.90;;;;;;5060243;28;20104;-67
2023/07/02 06:52:00;;;;;;;32.63;21.43;;;20.60;99.90;;;;;;5061204;28;20090;-68
2023/07/02 06:54:25;;;;;;;34.08;20.30;;;20.60;99.90;;;;;;5060661;28;20492;-67
2023/07/02 06:56:51;;;;;;;31.98;19.95;;;20.40;99.90;;;;;;5042220;28;20037;-67
2023/07/02 06:59:23;;;;;;;28.83;17.33;;;20.20;99.90;;;;;;5059093;28;20044;-67
2023/07/02 07:01:50;;;;;;;31.20;18.80;;;20.30;99.90;;;;;;5055528;28;20033;-67
2023/07/02 07:04:16;;;;;;;29.48;18.33;;;20.40;99.90;;;;;;5048425;28;20579;-67
2023/07/02 07:06:42;;;;;;;28.50;17.27;;;20.70;99.90;;;;;;5046922;28;20140;-67
2023/07/02 07:09:08;;;;;;;;;;;20.80;99.90;;;;;;5063337;28;20035;-66
2023/07/02 07:11:34;;;;;;;22.65;15.63;;;20.90;99.90;;;;;;5058116;28;20011;-67
2023/07/02 07:14:00;;;;;;;24.63;16.42;;;21.00;99.90;;;;;;5060179;28;20068;-67
2023/07/02 07:16:26;;;;;;;25.63;14.87;;;20.90;99.90;;;;;;5061614;28;20060;-68
2023/07/02 07:18:51;;;;;;;23.80;15.88;;;20.80;99.90;;;;;;5059627;28;20298;-64
2023/07/02 07:21:17;;;;;;;22.43;15.63;;;20.70;99.90;;;;;;5062176;28;20048;-66
2023/07/02 07:23:42;;;;;;;22.80;15.93;;;20.80;99.90;;;;;;5039533;28;20033;-65
2023/07/02 07:26:08;;;;;;;25.87;16.97;;;21.10;99.90;;;;;;5061594;28;20025;-65
2023/07/02 07:28:34;;;;;;;25.63;16.90;;;21.40;99.90;;;;;;5044221;28;20496;-66
2023/07/02 07:30:59;;;;;;;24.92;17.63;;;21.80;99.90;;;;;;5059802;28;20033;-65
2023/07/02 07:33:25;;;;;;;32.70;17.60;;;22.50;99.90;;;;;;5063782;28;20101;-66
2023/07/02 07:35:51;;;;;;;27.73;17.33;;;23.00;99.90;;;;;;5043863;28;20389;-66
2023/07/02 07:38:16;;;;;;;27.27;16.20;;;23.20;99.90;;;;;;5064001;28;20051;-67
2023/07/02 07:40:43;;;;;;;24.10;16.73;;;23.10;99.90;;;;;;5058198;28;20435;-66
2023/07/02 07:43:08;;;;;;;;;;;23.50;99.90;;;;;;5061126;28;20090;-67
2023/07/02 07:45:34;;;;;;;26.75;16.90;;;24.00;99.90;;;;;;5061070;28;19916;-66
2023/07/02 07:48:00;;;;;;;27.58;15.88;;;24.10;99.90;;;;;;5058146;28;20043;-67
2023/07/02 07:50:26;;;;;;;22.08;15.05;;;24.40;99.90;;;;;;5055719;28;20016;-66
2023/07/02 07:52:52;;;;;;;23.37;16.07;;;24.40;99.50;;;;;;5060637;28;20033;-68
2023/07/02 07:55:17;;;;;;;24.05;17.23;;;24.10;99.40;;;;;;5057293;28;21144;-67
2023/07/02 07:57:43;;;;;;;24.58;16.70;;;23.70;99.90;;;;;;5060670;28;20040;-67
2023/07/02 08:00:12;;;;;;;23.67;14.87;;;23.70;99.90;;;;;;5059668;28;20040;-67
2023/07/02 08:02:38;;;;;;;20.50;14.18;;;23.70;99.60;;;;;;5057691;28;20076;-67
2023/07/02 08:05:04;;;;;;;20.83;14.80;;;23.90;99.00;;;;;;5041279;28;20083;-67
2023/07/02 08:07:31;;;;;;;;;;;23.80;99.30;;;;;;5040165;28;20037;-67
2023/07/02 08:09:56;;;;;;;23.20;14.70;;;24.00;99.90;;;;;;5056682;28;20391;-66
2023/07/02 08:12:22;;;;;;;22.77;14.70;;;24.10;97.90;;;;;;5058409;28;20033;-66
2023/07/02 08:14:49;;;;;;;24.43;15.87;;;23.60;98.90;;;;;;5058615;28;20349;-67
2023/07/02 08:17:14;;;;;;;22.08;15.45;;;24.20;98.70;;;;;;5063811;28;20033;-67
2023/07/02 08:19:40;;;;;;;25.92;14.63;;;24.50;97.10;;;;;;5069427;28;20036;-66
2023/07/02 08:22:06;;;;;;;21.10;15.30;;;25.00;95.10;;;;;;5063716;28;20571;-67
2023/07/02 08:24:31;;;;;;;21.80;14.80;;;25.00;94.80;;;;;;5062586;28;20150;-67
2023/07/02 08:26:58;;;;;;;29.70;15.90;;;24.70;94.90;;;;;;5062656;28;20032;-66
2023/07/02 08:29:24;;;;;;;24.25;15.85;;;25.90;94.00;;;;;;5063679;28;20496;-67
2023/07/02 08:31:50;;;;;;;21.25;14.85;;;27.20;90.20;;;;;;5056659;28;20044;-67
2023/07/02 08:34:15;;;;;;;19.55;13.90;;;28.20;82.90;;;;;;5059897;28;20112;-67
2023/07/02 08:36:43;;;;;;;22.52;13.90;;;27.00;83.40;;;;;;5060520;28;20032;-67
2023/07/02 08:39:09;;;;;;;17.33;12.35;;;26.40;86.50;;;;;;5057629;28;20037;-67
2023/07/02 08:41:45;;;;;;;16.50;11.73;;;28.00;81.70;;;;;;5059434;28;20149;-68
2023/07/02 08:44:15;;;;;;;20.15;14.00;;;26.80;84.20;;;;;;5061242;28;20518;-67
2023/07/02 08:46:42;;;;;;;19.98;12.45;;;28.30;79.60;;;;;;5062781;28;20507;-67
2023/07/02 08:49:08;;;;;;;16.08;12.05;;;27.20;84.20;;;;;;5059223;28;20408;-66
2023/07/02 08:51:34;;;;;;;17.33;12.73;;;26.40;86.00;;;;;;5062797;28;20032;-66
2023/07/02 08:54:00;;;;;;;19.77;13.68;;;25.80;90.00;;;;;;5064256;28;20041;-67
2023/07/02 08:56:26;;;;;;;20.42;12.95;;;25.80;88.10;;;;;;5059414;28;20103;-67
2023/07/02 08:58:52;;;;;;;15.70;11.20;;;25.70;90.00;;;;;;5057340;28;20068;-67
2023/07/02 09:01:18;;;;;;;19.80;13.25;;;25.30;92.80;;;;;;5059806;28;20067;-66
2023/07/02 09:03:44;;;;;;;19.33;13.23;;;24.80;93.60;;;;;;5060271;28;20048;-67
2023/07/02 09:06:11;;;;;;;20.65;13.40;;;25.70;93.50;;;;;;5043472;28;20035;-68
2023/07/02 09:08:37;;;;;;;19.17;13.55;;;26.90;89.30;;;;;;5041831;28;20059;-68
2023/07/02 09:11:15;;;;;;;16.48;12.07;;;26.10;90.90;;;;;;5054855;28;20107;-67
2023/07/02 09:13:58;;;;;;;19.20;12.98;;;25.40;91.60;;;;;;5061943;28;20527;-70
2023/07/02 09:16:24;;;;;;;24.50;12.80;;;25.60;91.80;;;;;;5058681;28;20040;-67
2023/07/02 09:19:00;;;;;;;23.85;14.13;;;25.30;91.50;;;;;;5061509;28;20036;-68
2023/07/02 09:21:28;;;;;;;16.60;11.35;;;25.10;92.10;;;;;;5058862;28;20381;-66
2023/07/02 09:23:54;;;;;;;15.95;11.20;;;24.60;91.30;;;;;;5061818;28;20041;-69
2023/07/02 09:26:21;;;;;;;17.77;11.38;;;24.00;93.20;;;;;;5059637;28;20041;-69
2023/07/02 09:28:47;;;;;;;17.00;12.48;;;23.70;94.70;;;;;;5063310;28;20035;-70
2023/07/02 09:31:13;;;;;;;18.00;13.43;;;23.90;95.30;;;;;;5060003;28;20033;-66
2023/07/02 09:33:38;;;;;;;17.10;12.00;;;24.00;94.90;;;;;;5061410;28;20578;-71
2023/07/02 09:36:05;;;;;;;23.60;12.48;;;24.10;94.40;;;;;;5058527;28;20082;-71
2023/07/02 09:38:30;;;;;;;;;;;24.00;94.20;;;;;;5060935;28;20439;-72
2023/07/02 09:40:57;;;;;;;17.80;12.25;;;24.30;94.00;;;;;;5061014;28;19915;-66
2023/07/02 09:43:24;;;;;;;16.85;12.32;;;25.30;92.70;;;;;;5061868;28;20028;-71
2023/07/02 09:45:53;;;;;;;17.88;12.73;;;28.50;83.60;;;;;;5064087;28;20043;-71
2023/07/02 09:48:23;;;;;;;18.17;12.43;;;30.50;75.60;;;;;;5064866;28;20032;-70
2023/07/02 09:50:50;;;;;;;21.83;13.10;;;28.50;80.00;;;;;;5060203;28;20035;-69
2023/07/02 09:53:16;;;;;;;18.70;13.10;;;27.50;83.70;;;;;;5057633;28;20043;-70
2023/07/02 09:55:44;;;;;;;18.95;12.65;;;32.90;72.00;;;;;;5055801;28;20548;-71
2023/07/02 09:58:11;;;;;;;16.98;11.40;;;37.30;61.00;;;;;;5059458;28;20040;-70
2023/07/02 10:00:38;;;;;;;11.98;8.73;;;38.90;57.30;;;;;;5059704;28;20021;-68
2023/07/02 10:03:04;;;;;;;14.35;10.63;;;39.30;51.50;;;;;;5058708;28;20028;-69
2023/07/02 10:05:30;;;;;;;;;;;38.40;55.40;;;;;;5060094;28;20051;-71
2023/07/02 10:07:57;;;;;;;12.18;9.27;;;37.60;54.30;;;;;;5056973;28;19982;-70
2023/07/02 10:10:30;;;;;;;13.95;10.70;;;34.90;57.40;;;;;;5058169;28;20028;-71
2023/07/02 10:12:56;;;;;;;12.85;9.30;;;32.40;61.80;;;;;;5058352;28;20036;-69
2023/07/02 10:15:29;;;;;;;13.30;9.68;;;30.90;65.60;;;;;;5062939;28;20032;-69
2023/07/02 10:18:00;;;;;;;13.40;8.93;;;29.60;67.50;;;;;;5057375;28;20035;-70
2023/07/02 10:20:38;;;;;;;11.75;9.18;;;30.70;68.10;;;;;;5043253;28;20503;-66
2023/07/02 10:23:08;;;;;;;12.05;9.90;;;30.00;69.20;;;;;;5060100;28;20678;-67
2023/07/02 10:25:38;;;;;;;13.77;10.20;;;29.10;71.80;;;;;;5058551;28;20029;-70
2023/07/02 10:28:33;;;;;;;12.93;10.02;;;28.20;73.90;;;;;;5058064;28;20024;-69
2023/07/02 10:30:58;;;;;;;12.43;9.45;;;28.20;75.30;;;;;;5044293;28;20045;-68
2023/07/02 10:33:24;;;;;;;13.38;9.60;;;28.10;76.30;;;;;;5059360;28;20032;-67
2023/07/02 10:35:50;;;;;;;14.07;9.82;;;27.80;77.40;;;;;;5056377;28;20043;-70
2023/07/02 10:38:22;;;;;;;17.27;9.90;;;27.20;76.80;;;;;;5059744;28;20040;-67
2023/07/02 10:40:55;;;;;;;13.40;9.68;;;26.70;79.20;;;;;;5062246;28;20028;-68
2023/07/02 10:43:25;;;;;;;14.65;10.70;;;26.40;80.20;;;;;;5061040;28;20032;-68
2023/07/02 10:45:51;;;;;;;15.18;10.35;;;25.90;83.00;;;;;;5062954;28;20082;-66
2023/07/02 10:48:17;;;;;;;16.90;11.93;;;25.80;86.10;;;;;;5045349;28;20042;-69
2023/07/02 10:50:42;;;;;;;17.00;13.07;;;25.60;89.50;;;;;;5061728;28;20039;-68
2023/07/02 10:53:15;;;;;;;20.40;14.02;;;25.60;87.90;;;;;;5044294;28;20032;-66
2023/07/02 10:55:41;;;;;;;15.98;11.63;;;25.70;89.20;;;;;;5066051;28;20028;-68
2023/07/02 10:58:08;;;;;;;20.88;11.38;;;25.80;89.50;;;;;;5061729;28;20681;-68
2023/07/02 11:01:04;;;;;;;20.63;11.50;;;25.80;87.20;;;;;;5063829;28;20032;-65
2023/07/02 11:03:30;;;;;;;17.10;10.15;;;26.20;87.50;;;;;;5040597;28;20037;-68
2023/07/02 11:05:55;;;;;;;;;;;26.50;86.00;;;;;;5064648;28;20131;-68
2023/07/02 11:08:23;;;;;;;17.45;11.90;;;26.60;83.20;;;;;;5066942;28;20280;-64
2023/07/02 11:10:48;;;;;;;13.85;9.65;;;26.60;82.00;;;;;;5062824;28;20472;-64
2023/07/02 11:13:16;;;;;;;15.43;9.82;;;26.50;83.60;;;;;;5065218;28;20074;-68
2023/07/02 11:15:42;;;;;;;18.45;12.48;;;26.30;81.00;;;;;;5062877;28;20021;-65
2023/07/02 11:18:15;;;;;;;14.43;9.95;;;26.00;86.00;;;;;;5063409;28;20052;-63
2023/07/02 11:20:42;;;;;;;14.07;9.77;;;26.20;85.10;;;;;;5063833;28;20041;-68
2023/07/02 11:23:34;;;;;;;13.93;8.90;;;26.20;82.30;;;;;;5064321;28;20036;-66
2023/07/02 11:26:02;;;;;;;11.95;8.75;;;26.00;83.60;;;;;;5058229;28;20079;-68
2023/07/02 11:28:30;;;;;;;12.60;9.00;;;26.30;83.80;;;;;;5061244;28;20033;-64
2023/07/02 11:30:57;;;;;;;13.05;8.65;;;26.20;82.10;;;;;;5062875;28;20028;-68
2023/07/02 11:33:39;;;;;;;12.93;9.80;;;26.50;83.10;;;;;;5062485;28;20155;-68
2023/07/02 11:36:20;;;;;;;11.27;8.02;;;26.50;80.90;;;;;;5043153;28;20122;-67
2023/07/02 11:38:45;;;;;;;11.02;7.57;;;26.70;81.30;;;;;;5066838;28;20036;-68
2023/07/02 11:41:12;;;;;;;11.80;7.82;;;27.40;79.00;;;;;;5063718;28;20040;-67
2023/07/02 11:43:38;;;;;;;9.70;7.05;;;27.50;76.60;;;;;;5063580;28;20043;-69
2023/07/02 11:46:04;;;;;;;11.27;8.18;;;27.50;75.20;;;;;;5061349;28;20036;-69
2023/07/02 11:48:30;;;;;;;15.90;9.15;;;27.90;77.40;;;;;;5065159;28;20036;-68
2023/07/02 11:50:55;;;;;;;10.68;7.82;;;27.50;76.50;;;;;;5060999;28;20099;-67
2023/07/02 11:53:21;;;;;;;10.23;7.40;;;27.20;78.40;;;;;;5061508;28;20064;-67
2023/07/02 11:55:46;;;;;;;10.60;7.43;;;27.00;82.10;;;;;;5055851;28;20036;-68
2023/07/02 11:58:12;;;;;;;9.45;6.63;;;26.90;78.40;;;;;;5063134;28;20503;-65
2023/07/02 12:00:38;;;;;;;9.70;7.28;;;27.00;81.10;;;;;;5062034;28;20052;-68
2023/07/02 12:03:04;;;;;;;11.60;8.20;;;26.60;80.20;;;;;;5061777;28;20758;-67
2023/07/02 12:05:29;;;;;;;11.68;8.13;;;26.60;79.50;;;;;;5062281;28;20488;-68
2023/07/02 12:07:55;;;;;;;10.00;7.20;;;26.80;81.20;;;;;;5059555;28;20029;-69
2023/07/02 12:10:20;;;;;;;10.63;7.60;;;26.90;81.70;;;;;;5057253;28;20188;-68
2023/07/02 12:12:46;;;;;;;10.02;7.22;;;26.60;77.30;;;;;;5060462;28;20449;-69
2023/07/02 12:15:12;;;;;;;12.25;7.72;;;26.70;80.50;;;;;;5061941;28;20064;-65
2023/07/02 12:17:37;;;;;;;9.60;7.30;;;26.80;82.20;;;;;;5047034;28;20036;-68
2023/07/02 12:20:03;;;;;;;10.65;7.22;;;26.80;79.40;;;;;;5060427;28;20037;-69
2023/07/02 12:22:29;;;;;;;8.05;5.65;;;26.50;79.50;;;;;;5058535;28;20039;-66
2023/07/02 12:24:56;;;;;;;9.50;7.05;;;26.60;80.20;;;;;;5066059;28;20535;-68
2023/07/02 12:27:22;;;;;;;8.57;6.20;;;27.10;79.20;;;;;;5065396;28;20056;-68
2023/07/02 12:29:48;;;;;;;9.13;6.13;;;27.30;78.30;;;;;;5053927;28;20068;-65
2023/07/02 12:32:14;;;;;;;8.88;5.80;;;27.30;74.90;;;;;;5060257;28;20083;-69